Time;durP1;ratioP1;P1;durP2;ratioP2;P2;SDS_P1;SDS_P2;PMS_P1;PMS_P2;Temp;Humidity;BMP_temperature;BMP_pressure;BME280_temperature;BME280_humidity;BME280_pressure;Samples;Min_cycle;Max_cycle;Signal;HPM_P1;HPM_P2
2024/01/08 00:01:33;;;;;;;10.23;9.05;;;0.70;97.30;;;;;;4197719;28;20045;-66
2024/01/08 00:03:38;;;;;;;11.73;9.55;;;0.70;97.10;;;;;;4197692;28;20072;-69
2024/01/08 00:05:44;;;;;;;10.90;8.90;;;0.60;97.10;;;;;;4197641;28;20040;-66
2024/01/08 00:07:47;;;;;;;14.05;8.82;;;0.60;97.10;;;;;;4197622;28;20053;-66
2024/01/08 00:09:49;;;;;;;10.38;9.05;;;0.60;97.00;;;;;;4179764;28;20443;-67
2024/01/08 00:11:51;;;;;;;9.45;7.97;;;0.60;96.80;;;;;;4197622;28;20128;-66
2024/01/08 00:13:58;;;;;;;9.05;7.88;;;0.50;96.70;;;;;;4180078;28;20088;-68
2024/01/08 00:16:00;;;;;;;10.98;8.15;;;0.50;96.70;;;;;;4197429;28;20226;-67
2024/01/08 00:18:04;;;;;;;9.60;8.40;;;0.50;96.70;;;;;;4197081;28;20058;-68
2024/01/08 00:20:09;;;;;;;7.75;7.00;;;0.40;96.40;;;;;;4197358;28;20044;-68
2024/01/08 00:22:13;;;;;;;10.35;8.35;;;0.40;96.60;;;;;;4197083;28;20123;-69
2024/01/08 00:24:15;;;;;;;10.07;7.85;;;0.50;97.10;;;;;;4197213;28;20532;-67
2024/01/08 00:26:17;;;;;;;12.48;7.65;;;0.50;96.90;;;;;;4198314;28;20153;-66
2024/01/08 00:28:19;;;;;;;7.90;7.10;;;0.50;97.10;;;;;;4198108;28;20083;-67
2024/01/08 00:30:21;;;;;;;11.07;8.13;;;0.50;97.20;;;;;;4197294;28;20044;-68
2024/01/08 00:32:23;;;;;;;9.73;7.55;;;0.60;96.80;;;;;;4196920;28;20131;-68
2024/01/08 00:34:27;;;;;;;9.75;8.20;;;0.60;96.80;;;;;;4197240;28;20488;-68
2024/01/08 00:36:31;;;;;;;10.35;7.95;;;0.60;96.80;;;;;;4197447;28;20090;-68
2024/01/08 00:38:33;;;;;;;8.23;7.37;;;0.70;96.70;;;;;;4179371;28;20131;-67
2024/01/08 00:40:35;;;;;;;9.35;8.05;;;0.70;97.00;;;;;;4198271;28;20052;-68
2024/01/08 00:42:38;;;;;;;8.43;7.38;;;0.70;96.90;;;;;;4198358;28;20079;-67
2024/01/08 00:44:42;;;;;;;11.70;7.70;;;0.70;96.70;;;;;;4198054;28;20048;-68
2024/01/08 00:46:44;;;;;;;9.85;8.15;;;0.70;96.70;;;;;;4198325;28;20060;-66
2024/01/08 00:48:46;;;;;;;9.68;8.05;;;0.70;96.60;;;;;;4198590;28;20051;-67
2024/01/08 00:50:52;;;;;;;10.27;7.85;;;0.70;96.40;;;;;;4198640;28;20041;-67
2024/01/08 00:52:54;;;;;;;9.25;7.60;;;0.60;96.20;;;;;;4198306;28;20044;-68
2024/01/08 00:55:04;;;;;;;10.35;7.97;;;0.50;96.00;;;;;;4180989;28;20087;-67
2024/01/08 00:57:07;;;;;;;10.90;7.88;;;0.50;96.10;;;;;;4200393;28;20473;-67
2024/01/08 00:59:09;;;;;;;13.07;7.85;;;0.60;96.10;;;;;;4201958;28;20453;-67
2024/01/08 01:01:12;;;;;;;12.65;8.43;;;0.50;96.00;;;;;;4201770;28;20132;-67
2024/01/08 01:03:14;;;;;;;10.15;7.95;;;0.50;95.80;;;;;;4200665;28;20378;-67
2024/01/08 01:05:16;;;;;;;11.35;8.40;;;0.40;95.90;;;;;;4200770;28;20125;-66
2024/01/08 01:07:20;;;;;;;8.32;7.10;;;0.50;96.10;;;;;;4201154;28;20050;-68
2024/01/08 01:09:23;;;;;;;9.50;7.68;;;0.50;95.60;;;;;;4201580;28;20048;-67
2024/01/08 01:11:26;;;;;;;11.43;8.15;;;0.40;95.60;;;;;;4201863;28;20127;-67
2024/01/08 01:13:28;;;;;;;10.30;7.88;;;0.40;95.60;;;;;;4201717;28;20060;-67
2024/01/08 01:15:31;;;;;;;11.20;7.68;;;0.40;95.60;;;;;;4201630;28;20063;-66
2024/01/08 01:17:33;;;;;;;9.15;7.22;;;0.40;95.50;;;;;;4200733;28;20048;-67
2024/01/08 01:19:36;;;;;;;9.98;7.50;;;0.40;95.50;;;;;;4200769;28;20051;-67
2024/01/08 01:21:38;;;;;;;9.60;7.82;;;0.40;95.60;;;;;;4200902;28;20102;-66
2024/01/08 01:23:41;;;;;;;13.10;7.50;;;0.40;95.80;;;;;;4200784;28;20045;-67
2024/01/08 01:25:44;;;;;;;8.65;6.15;;;0.40;95.60;;;;;;4200208;28;20116;-66
2024/01/08 01:27:47;;;;;;;11.07;7.70;;;0.40;95.70;;;;;;4182122;28;20057;-66
2024/01/08 01:29:49;;;;;;;12.98;7.25;;;0.40;95.70;;;;;;4199731;28;20044;-66
2024/01/08 01:31:51;;;;;;;9.20;7.10;;;0.40;95.30;;;;;;4199964;28;20099;-66
2024/01/08 01:33:53;;;;;;;9.93;7.68;;;0.40;95.50;;;;;;4199669;28;20045;-66
2024/01/08 01:35:58;;;;;;;10.15;7.93;;;0.40;95.30;;;;;;4182336;28;20109;-67
2024/01/08 01:38:01;;;;;;;14.75;7.43;;;0.40;95.50;;;;;;4181981;28;20439;-66
2024/01/08 01:40:06;;;;;;;8.98;6.70;;;0.40;95.40;;;;;;4182492;28;20044;-67
2024/01/08 01:42:08;;;;;;;8.35;7.00;;;0.40;95.60;;;;;;4183682;28;20059;-66
2024/01/08 01:44:10;;;;;;;8.93;6.85;;;0.40;95.60;;;;;;4200243;28;20049;-66
2024/01/08 01:46:23;;;;;;;9.05;7.35;;;0.40;95.50;;;;;;4200142;28;20132;-66
2024/01/08 01:48:27;;;;;;;9.23;7.63;;;0.40;95.70;;;;;;4199540;28;20045;-67
2024/01/08 01:50:29;;;;;;;8.88;7.40;;;0.40;95.70;;;;;;4181255;28;20128;-67
2024/01/08 01:52:31;;;;;;;9.40;7.38;;;0.40;95.50;;;;;;4181330;28;20052;-66
2024/01/08 01:54:34;;;;;;;10.30;7.07;;;0.40;95.60;;;;;;4199234;28;20363;-67
2024/01/08 01:56:38;;;;;;;11.70;8.20;;;0.50;95.80;;;;;;4198816;28;20079;-66
2024/01/08 01:58:41;;;;;;;8.43;7.55;;;0.50;95.70;;;;;;4198875;28;20090;-65
2024/01/08 02:00:43;;;;;;;9.25;6.68;;;0.50;95.70;;;;;;4197836;28;20044;-66
2024/01/08 02:02:46;;;;;;;8.70;7.28;;;0.50;95.60;;;;;;4199144;28;20044;-66
2024/01/08 02:04:50;;;;;;;9.48;6.95;;;0.50;95.60;;;;;;4198498;28;20083;-67
2024/01/08 02:06:54;;;;;;;6.63;5.23;;;0.50;95.90;;;;;;4197761;28;20048;-66
2024/01/08 02:08:56;;;;;;;8.07;5.43;;;0.50;95.70;;;;;;4198618;28;20450;-67
2024/01/08 02:10:58;;;;;;;15.40;7.32;;;0.50;95.70;;;;;;4199248;28;20044;-66
2024/01/08 02:13:03;;;;;;;8.95;6.47;;;0.50;95.70;;;;;;4199448;28;20075;-66
2024/01/08 02:15:06;;;;;;;8.50;6.50;;;0.60;95.60;;;;;;4199918;28;20047;-66
2024/01/08 02:17:08;;;;;;;8.63;6.32;;;0.60;95.60;;;;;;4199897;28;20410;-66
2024/01/08 02:19:10;;;;;;;6.70;6.00;;;0.50;95.10;;;;;;4198733;28;20139;-66
2024/01/08 02:21:14;;;;;;;8.07;6.35;;;0.50;95.20;;;;;;4197889;28;20048;-66
2024/01/08 02:23:17;;;;;;;8.88;6.53;;;0.50;95.50;;;;;;4198792;28;20131;-67
2024/01/08 02:25:20;;;;;;;7.63;6.13;;;0.50;95.50;;;;;;4199118;28;20045;-67
2024/01/08 02:27:22;;;;;;;8.18;6.75;;;0.60;95.50;;;;;;4198502;28;20048;-67
2024/01/08 02:29:25;;;;;;;7.70;6.53;;;0.60;95.60;;;;;;4198838;28;20446;-67
2024/01/08 02:31:28;;;;;;;8.52;6.30;;;0.60;95.50;;;;;;4199163;28;20139;-68
2024/01/08 02:33:30;;;;;;;7.65;6.80;;;0.50;95.50;;;;;;4198957;28;20044;-67
2024/01/08 02:35:32;;;;;;;7.45;6.45;;;0.50;95.60;;;;;;4197963;28;20091;-66
2024/01/08 02:37:34;;;;;;;8.35;6.40;;;0.50;95.60;;;;;;4198596;28;20128;-68
2024/01/08 02:39:38;;;;;;;8.25;6.13;;;0.50;95.70;;;;;;4199214;28;20049;-68
2024/01/08 02:41:40;;;;;;;8.80;6.80;;;0.50;95.80;;;;;;4199111;28;20076;-67
2024/01/08 02:43:42;;;;;;;8.27;6.70;;;0.40;95.70;;;;;;4199814;28;20059;-66
2024/01/08 02:45:45;;;;;;;11.27;7.15;;;0.40;95.70;;;;;;4199106;28;20049;-66
2024/01/08 02:47:47;;;;;;;9.48;7.25;;;0.40;95.80;;;;;;4199574;28;20463;-66
2024/01/08 02:49:51;;;;;;;8.07;6.93;;;0.40;95.70;;;;;;4199884;28;20060;-68
2024/01/08 02:51:53;;;;;;;12.02;7.80;;;0.50;95.70;;;;;;4199758;28;20057;-64
2024/01/08 02:53:59;;;;;;;9.68;8.07;;;0.40;95.80;;;;;;4199636;28;20040;-66
2024/01/08 02:56:02;;;;;;;10.27;8.00;;;0.40;95.80;;;;;;4199608;28;20062;-66
2024/01/08 02:58:05;;;;;;;12.88;8.63;;;0.50;96.00;;;;;;4199146;28;20052;-66
2024/01/08 03:00:09;;;;;;;11.30;7.78;;;0.40;95.90;;;;;;4199653;28;20076;-65
2024/01/08 03:02:11;;;;;;;10.98;7.80;;;0.40;96.00;;;;;;4199032;28;20048;-66
2024/01/08 03:04:13;;;;;;;10.05;7.88;;;0.40;95.80;;;;;;4199188;28;20070;-66
2024/01/08 03:06:15;;;;;;;9.60;7.88;;;0.40;96.10;;;;;;4198849;28;20051;-68
2024/01/08 03:08:17;;;;;;;8.68;6.88;;;0.40;96.00;;;;;;4181334;28;20053;-67
2024/01/08 03:10:19;;;;;;;9.07;7.32;;;0.40;95.80;;;;;;4202691;28;20076;-66
2024/01/08 03:12:24;;;;;;;10.45;7.82;;;0.30;95.80;;;;;;4202483;28;20044;-66
2024/01/08 03:14:26;;;;;;;11.52;7.53;;;0.40;95.80;;;;;;4203557;28;20049;-66
2024/01/08 03:16:28;;;;;;;8.50;7.05;;;0.40;96.00;;;;;;4203733;28;20105;-67
2024/01/08 03:18:30;;;;;;;11.18;7.47;;;0.40;95.90;;;;;;4201382;28;20463;-66
2024/01/08 03:20:32;;;;;;;9.90;6.70;;;0.40;95.90;;;;;;4184625;28;20446;-68
2024/01/08 03:22:35;;;;;;;8.82;7.13;;;0.50;96.10;;;;;;4201502;28;20048;-66
2024/01/08 03:24:37;;;;;;;9.02;6.68;;;0.50;95.90;;;;;;4202641;28;20072;-67
2024/01/08 03:26:39;;;;;;;8.25;6.75;;;0.40;96.10;;;;;;4202657;28;20052;-66
2024/01/08 03:28:43;;;;;;;9.82;6.82;;;0.40;96.30;;;;;;4202021;28;20048;-67
2024/01/08 03:30:46;;;;;;;7.78;6.80;;;0.40;96.10;;;;;;4202556;28;20044;-67
2024/01/08 03:32:48;;;;;;;8.60;6.22;;;0.40;96.10;;;;;;4199014;28;20056;-67
2024/01/08 03:34:51;;;;;;;8.60;6.75;;;0.40;96.30;;;;;;4202565;28;20089;-68
2024/01/08 03:36:53;;;;;;;8.88;6.70;;;0.40;96.30;;;;;;4201978;28;20059;-67
2024/01/08 03:38:55;;;;;;;10.52;6.72;;;0.30;96.20;;;;;;4200910;28;20052;-67
2024/01/08 03:40:57;;;;;;;6.63;5.93;;;0.30;96.30;;;;;;4183652;28;20049;-66
2024/01/08 03:43:00;;;;;;;7.47;6.20;;;0.40;96.70;;;;;;4200163;28;20075;-67
2024/01/08 03:45:04;;;;;;;10.73;6.72;;;0.30;96.70;;;;;;4199145;28;20055;-66
2024/01/08 03:47:10;;;;;;;9.38;6.85;;;0.30;96.60;;;;;;4199879;28;20574;-66
2024/01/08 03:49:14;;;;;;;9.43;6.90;;;0.30;96.70;;;;;;4199033;28;20071;-67
2024/01/08 03:51:16;;;;;;;9.95;6.78;;;0.30;96.80;;;;;;4200165;28;20158;-67
2024/01/08 03:53:18;;;;;;;9.43;6.93;;;0.30;96.70;;;;;;4199937;28;20044;-67
2024/01/08 03:55:21;;;;;;;7.72;6.50;;;0.30;96.80;;;;;;4200206;28;20044;-67
2024/01/08 03:57:23;;;;;;;8.15;6.63;;;0.30;96.50;;;;;;4200999;28;20056;-68
2024/01/08 03:59:26;;;;;;;7.63;6.43;;;0.20;96.30;;;;;;4200095;28;20059;-66
2024/01/08 04:01:29;;;;;;;7.95;6.45;;;0.20;96.50;;;;;;4199913;28;20045;-66
2024/01/08 04:03:32;;;;;;;7.90;6.63;;;0.10;96.50;;;;;;4199245;28;20091;-67
2024/01/08 04:05:34;;;;;;;9.20;6.40;;;0.20;96.80;;;;;;4199345;28;20510;-67
2024/01/08 04:07:37;;;;;;;11.20;6.85;;;0.20;96.50;;;;;;4199976;28;20048;-67
2024/01/08 04:09:40;;;;;;;7.53;6.20;;;0.10;96.30;;;;;;4202861;28;20044;-66
2024/01/08 04:11:46;;;;;;;8.88;6.28;;;0.20;96.40;;;;;;4201872;28;20529;-67
2024/01/08 04:13:48;;;;;;;7.85;6.20;;;0.10;96.40;;;;;;4198855;28;20106;-67
2024/01/08 04:15:50;;;;;;;9.05;6.55;;;0.10;96.50;;;;;;4197460;28;20072;-67
2024/01/08 04:17:54;;;;;;;8.60;6.30;;;0.10;96.50;;;;;;4197639;28;20037;-66
2024/01/08 04:19:56;;;;;;;7.50;6.18;;;0.20;96.60;;;;;;4197194;28;20100;-66
2024/01/08 04:22:00;;;;;;;9.32;6.60;;;0.20;96.50;;;;;;4163343;28;20053;-66
2024/01/08 04:24:03;;;;;;;10.00;7.05;;;0.10;96.50;;;;;;4197822;28;20052;-67
2024/01/08 04:26:05;;;;;;;9.02;6.68;;;0.10;96.50;;;;;;4197677;28;20040;-66
2024/01/08 04:28:08;;;;;;;9.75;6.97;;;0.10;96.50;;;;;;4179444;28;20106;-67
2024/01/08 04:30:11;;;;;;;12.40;6.60;;;0.10;96.40;;;;;;4196932;28;20121;-66
2024/01/08 04:32:13;;;;;;;10.55;6.78;;;0.10;96.40;;;;;;4199534;28;20049;-65
2024/01/08 04:34:17;;;;;;;20.35;7.00;;;0.00;96.70;;;;;;4201747;28;20407;-66
2024/01/08 04:36:19;;;;;;;13.77;7.53;;;0.00;96.80;;;;;;4201769;28;20491;-66
2024/01/08 04:38:22;;;;;;;8.50;6.65;;;0.00;97.00;;;;;;4183154;28;20044;-66
2024/01/08 04:40:25;;;;;;;8.30;6.68;;;0.00;96.80;;;;;;4202090;28;20048;-67
2024/01/08 04:42:27;;;;;;;9.85;6.78;;;0.00;97.00;;;;;;4202061;28;20054;-66
2024/01/08 04:44:32;;;;;;;10.90;7.03;;;0.00;96.70;;;;;;4201878;28;20048;-66
2024/01/08 04:46:35;;;;;;;9.15;6.78;;;0.00;96.80;;;;;;4202352;28;20044;-66
2024/01/08 04:48:37;;;;;;;10.25;6.93;;;0.00;96.80;;;;;;4183411;28;20045;-67
2024/01/08 04:50:41;;;;;;;7.90;6.68;;;0.00;96.50;;;;;;4200364;28;20102;-66
2024/01/08 04:52:43;;;;;;;9.07;7.05;;;0.00;96.20;;;;;;4200640;28;20048;-66
2024/01/08 04:54:45;;;;;;;10.90;6.90;;;0.00;96.20;;;;;;4182582;28;20095;-67
2024/01/08 04:56:48;;;;;;;9.35;6.55;;;0.00;96.00;;;;;;4185909;28;20480;-67
2024/01/08 04:58:51;;;;;;;10.77;6.78;;;0.00;96.10;;;;;;4165823;28;20184;-66
2024/01/08 05:00:53;;;;;;;10.82;7.20;;;-0.10;95.90;;;;;;4184081;28;20067;-67
2024/01/08 05:02:55;;;;;;;12.20;7.07;;;-0.10;96.00;;;;;;4183538;28;20041;-66
2024/01/08 05:04:57;;;;;;;9.85;7.00;;;0.00;96.00;;;;;;4183444;28;20045;-66
2024/01/08 05:07:01;;;;;;;10.43;7.35;;;0.00;95.70;;;;;;4183818;28;20045;-65
2024/01/08 05:09:03;;;;;;;13.55;7.90;;;0.00;95.70;;;;;;4183759;28;20045;-66
2024/01/08 05:11:05;;;;;;;8.68;7.22;;;0.00;96.30;;;;;;4184437;28;20403;-64
2024/01/08 05:13:08;;;;;;;10.50;7.25;;;-0.10;96.00;;;;;;4183635;28;20132;-65
2024/01/08 05:15:11;;;;;;;11.25;7.82;;;-0.10;96.20;;;;;;4185203;28;20049;-64
2024/01/08 05:17:14;;;;;;;11.07;7.50;;;-0.10;96.10;;;;;;4168182;28;20197;-63
2024/01/08 05:19:16;;;;;;;12.60;8.23;;;-0.10;96.20;;;;;;4185735;28;20045;-63
2024/01/08 05:21:20;;;;;;;15.02;8.82;;;-0.10;96.30;;;;;;4185063;28;20124;-66
2024/01/08 05:23:24;;;;;;;11.23;8.18;;;0.00;96.40;;;;;;4185240;28;20049;-67
2024/01/08 05:25:26;;;;;;;10.82;7.47;;;-0.10;96.00;;;;;;4185738;28;20080;-64
2024/01/08 05:27:28;;;;;;;10.48;7.70;;;-0.10;95.90;;;;;;4184538;28;20049;-64
2024/01/08 05:29:30;;;;;;;11.00;7.97;;;-0.10;96.00;;;;;;4183977;28;20053;-64
2024/01/08 05:31:34;;;;;;;8.85;7.47;;;-0.10;96.00;;;;;;4183894;28;20094;-66
2024/01/08 05:33:36;;;;;;;9.15;7.65;;;-0.10;96.00;;;;;;4183442;28;20488;-66
2024/01/08 05:35:39;;;;;;;12.82;7.55;;;-0.10;96.00;;;;;;4165588;28;20091;-66
2024/01/08 05:37:41;;;;;;;10.63;7.70;;;-0.10;95.30;;;;;;4183542;28;20057;-66
2024/01/08 05:39:45;;;;;;;9.70;6.68;;;-0.20;95.00;;;;;;4165934;28;20132;-67
2024/01/08 05:41:48;;;;;;;5.95;5.20;;;-0.20;94.90;;;;;;4183435;28;20107;-66
2024/01/08 05:43:51;;;;;;;8.18;7.05;;;-0.30;94.80;;;;;;4184325;28;20049;-66
2024/01/08 05:45:54;;;;;;;8.38;7.53;;;-0.30;94.90;;;;;;4185688;28;20061;-67
2024/01/08 05:47:56;;;;;;;12.82;7.63;;;-0.30;95.00;;;;;;4184029;28;20053;-66
2024/01/08 05:49:58;;;;;;;9.93;7.93;;;-0.20;95.00;;;;;;4184624;28;20056;-64
2024/01/08 05:52:00;;;;;;;9.23;7.50;;;-0.20;94.90;;;;;;4183782;28;20128;-64
2024/01/08 05:54:03;;;;;;;11.68;8.43;;;-0.20;94.90;;;;;;4165719;28;20041;-65
2024/01/08 05:56:06;;;;;;;12.38;8.38;;;-0.20;95.10;;;;;;4174297;28;20091;-64
2024/01/08 05:58:08;;;;;;;11.93;8.02;;;-0.20;95.30;;;;;;4200672;28;20466;-65
2024/01/08 06:00:12;;;;;;;12.88;8.38;;;-0.10;95.00;;;;;;4201227;28;20431;-67
2024/01/08 06:02:14;;;;;;;11.00;7.65;;;-0.10;95.20;;;;;;4202463;28;20052;-67
2024/01/08 06:04:17;;;;;;;10.05;8.38;;;-0.10;95.40;;;;;;4201497;28;20391;-67
2024/01/08 06:06:23;;;;;;;11.25;8.18;;;-0.10;95.50;;;;;;4184068;28;20095;-67
2024/01/08 06:08:25;;;;;;;11.18;8.50;;;0.00;95.70;;;;;;4182883;28;20519;-68
2024/01/08 06:10:27;;;;;;;9.52;7.38;;;-0.10;95.40;;;;;;4200386;28;20048;-67
2024/01/08 06:12:31;;;;;;;12.15;8.70;;;-0.10;95.40;;;;;;4200221;28;20110;-66
2024/01/08 06:14:34;;;;;;;11.88;8.23;;;-0.10;95.30;;;;;;4199832;28;20044;-67
2024/01/08 06:16:37;;;;;;;12.27;8.82;;;-0.10;95.20;;;;;;4183344;28;20069;-66
2024/01/08 06:18:39;;;;;;;11.35;8.30;;;-0.10;95.30;;;;;;4200269;28;20128;-67
2024/01/08 06:20:41;;;;;;;11.73;8.95;;;-0.10;95.50;;;;;;4200410;28;20063;-65
2024/01/08 06:22:44;;;;;;;12.73;8.48;;;-0.10;95.00;;;;;;4200438;28;20475;-66
2024/01/08 06:24:46;;;;;;;18.73;8.70;;;-0.10;95.50;;;;;;4199991;28;20049;-64
2024/01/08 06:26:48;;;;;;;14.38;8.70;;;-0.10;95.20;;;;;;4201107;28;20158;-68
2024/01/08 06:28:52;;;;;;;10.43;8.55;;;-0.10;95.30;;;;;;4202779;28;20048;-64
2024/01/08 06:30:56;;;;;;;11.18;8.43;;;-0.10;95.20;;;;;;4185373;28;20127;-64
2024/01/08 06:32:58;;;;;;;16.97;8.90;;;-0.10;95.10;;;;;;4185518;28;20464;-64
2024/01/08 06:35:01;;;;;;;12.88;8.98;;;-0.10;94.80;;;;;;4202719;28;20855;-65
2024/01/08 06:37:03;;;;;;;15.27;8.48;;;-0.20;94.60;;;;;;4201084;28;20049;-66
2024/01/08 06:39:09;;;;;;;15.27;9.00;;;-0.20;94.70;;;;;;4202034;28;20044;-64
2024/01/08 06:41:11;;;;;;;11.55;8.05;;;-0.20;94.50;;;;;;4201526;28;20049;-64
2024/01/08 06:43:13;;;;;;;12.77;9.52;;;-0.20;94.60;;;;;;4183412;28;20136;-66
2024/01/08 06:45:18;;;;;;;10.77;9.10;;;-0.20;94.70;;;;;;4199372;28;20055;-66
2024/01/08 06:47:20;;;;;;;12.38;9.45;;;-0.20;94.70;;;;;;4198682;28;20056;-63
2024/01/08 06:49:22;;;;;;;14.57;8.88;;;-0.10;94.70;;;;;;4199122;28;20052;-63
2024/01/08 06:51:24;;;;;;;11.48;8.45;;;-0.20;94.40;;;;;;4199643;28;20062;-64
2024/01/08 06:53:26;;;;;;;11.27;8.50;;;-0.20;94.60;;;;;;4202055;28;20086;-67
2024/01/08 06:55:29;;;;;;;8.88;7.72;;;-0.20;94.60;;;;;;4200607;28;20060;-66
2024/01/08 06:57:31;;;;;;;14.05;8.57;;;-0.20;94.60;;;;;;4181652;28;20480;-66
2024/01/08 06:59:33;;;;;;;11.73;8.50;;;-0.20;94.60;;;;;;4198573;28;20499;-65
2024/01/08 07:01:36;;;;;;;15.02;8.07;;;-0.20;94.80;;;;;;4198462;28;20050;-66
2024/01/08 07:03:38;;;;;;;8.85;7.35;;;-0.20;94.90;;;;;;4181298;28;20056;-66
2024/01/08 07:05:41;;;;;;;11.00;8.30;;;-0.30;94.70;;;;;;4199125;28;20128;-66
2024/01/08 07:07:47;;;;;;;9.25;8.25;;;-0.40;95.10;;;;;;4198972;28;20054;-66
2024/01/08 07:09:49;;;;;;;11.77;8.02;;;-0.40;95.40;;;;;;4198730;28;20419;-64
2024/01/08 07:11:54;;;;;;;13.25;8.00;;;-0.50;95.50;;;;;;4198268;28;20403;-63
2024/01/08 07:13:56;;;;;;;;;;;-0.40;95.60;;;;;;4180742;28;20463;-66
2024/01/08 07:15:59;;;;;;;12.20;8.68;;;-0.50;95.60;;;;;;4180536;28;19928;-65
2024/01/08 07:18:02;;;;;;;11.43;7.95;;;-0.50;95.60;;;;;;4198251;28;20071;-63
2024/01/08 07:20:06;;;;;;;;;;;-0.40;95.80;;;;;;4198623;28;20549;-65
2024/01/08 07:22:08;;;;;;;10.07;7.90;;;-0.40;95.90;;;;;;4180528;28;19920;-65
2024/01/08 07:24:10;;;;;;;12.60;7.38;;;-0.30;95.80;;;;;;4197885;28;20109;-65
2024/01/08 07:26:14;;;;;;;10.30;7.70;;;-0.30;95.70;;;;;;4190368;28;20409;-65
2024/01/08 07:28:18;;;;;;;11.95;7.72;;;-0.30;95.90;;;;;;4181627;28;20065;-65
2024/01/08 07:30:20;;;;;;;15.40;8.10;;;-0.30;96.10;;;;;;4181172;28;20456;-67
2024/01/08 07:32:22;;;;;;;10.95;8.18;;;-0.20;95.90;;;;;;4181332;28;20045;-67
2024/01/08 07:34:26;;;;;;;12.05;7.97;;;-0.20;95.90;;;;;;4181594;28;20072;-67
2024/01/08 07:36:31;;;;;;;10.00;7.43;;;-0.20;95.70;;;;;;4181847;28;20056;-66
2024/01/08 07:38:33;;;;;;;15.70;7.32;;;-0.20;95.60;;;;;;4163786;28;20099;-67
2024/01/08 07:40:35;;;;;;;11.23;7.32;;;-0.20;95.70;;;;;;4181513;28;20106;-65
2024/01/08 07:42:37;;;;;;;23.05;8.07;;;-0.20;95.60;;;;;;4181316;28;20045;-65
2024/01/08 07:44:40;;;;;;;10.93;7.65;;;-0.30;95.70;;;;;;4180964;28;20045;-66
2024/01/08 07:46:42;;;;;;;10.68;7.10;;;-0.30;95.70;;;;;;4180925;28;20049;-66
2024/01/08 07:48:44;;;;;;;10.07;7.75;;;-0.30;95.70;;;;;;4181005;28;20484;-66
2024/01/08 07:50:48;;;;;;;11.07;8.18;;;-0.30;95.50;;;;;;4181244;28;20127;-66
2024/01/08 07:52:51;;;;;;;7.90;6.03;;;-0.20;95.60;;;;;;4183153;28;20045;-67
2024/01/08 07:54:53;;;;;;;8.38;7.03;;;-0.20;95.50;;;;;;4183851;28;20108;-68
2024/01/08 07:56:55;;;;;;;10.23;7.85;;;-0.20;95.30;;;;;;4199620;28;20478;-67
2024/01/08 07:59:04;;;;;;;15.27;7.65;;;-0.20;95.30;;;;;;4181982;28;20539;-67
2024/01/08 08:01:07;;;;;;;21.83;8.02;;;-0.20;95.30;;;;;;4199418;28;20056;-67
2024/01/08 08:03:10;;;;;;;9.35;7.25;;;-0.20;95.50;;;;;;4199170;28;20072;-67
2024/01/08 08:05:14;;;;;;;16.92;7.85;;;-0.20;95.30;;;;;;4197821;28;20048;-66
2024/01/08 08:07:17;;;;;;;12.55;7.30;;;-0.10;95.30;;;;;;4179736;28;20213;-66
2024/01/08 08:09:20;;;;;;;16.08;8.30;;;-0.20;95.30;;;;;;4197622;28;20397;-67
2024/01/08 08:11:22;;;;;;;13.52;7.75;;;-0.20;95.50;;;;;;4197730;28;20044;-68
2024/01/08 08:13:24;;;;;;;9.90;8.13;;;-0.20;95.50;;;;;;4197787;28;20091;-66
2024/01/08 08:15:28;;;;;;;11.05;7.70;;;-0.20;95.70;;;;;;4197604;28;20549;-67
2024/01/08 08:17:30;;;;;;;9.30;7.60;;;-0.20;95.50;;;;;;4179746;28;20048;-66
2024/01/08 08:19:34;;;;;;;15.68;8.27;;;-0.20;95.60;;;;;;4197505;28;20114;-65
2024/01/08 08:21:37;;;;;;;13.13;8.43;;;-0.20;95.40;;;;;;4197530;28;20048;-65
2024/01/08 08:23:42;;;;;;;12.25;8.98;;;-0.20;95.50;;;;;;4179618;28;20049;-68
2024/01/08 08:25:44;;;;;;;;;;;-0.10;95.40;;;;;;4197715;28;20048;-65
2024/01/08 08:27:46;;;;;;;8.80;7.47;;;-0.10;95.30;;;;;;4197916;28;19920;-65
2024/01/08 08:29:49;;;;;;;16.30;8.68;;;-0.10;95.60;;;;;;4199290;28;20071;-64
2024/01/08 08:31:51;;;;;;;12.70;8.48;;;-0.20;95.80;;;;;;4198765;28;20533;-65
2024/01/08 08:33:54;;;;;;;11.18;9.35;;;-0.20;95.80;;;;;;4180455;28;20491;-64
2024/01/08 08:35:56;;;;;;;11.63;8.35;;;-0.20;96.00;;;;;;4198097;28;20458;-66
2024/01/08 08:37:58;;;;;;;11.52;8.32;;;-0.20;95.60;;;;;;4197788;28;20052;-67
2024/01/08 08:40:03;;;;;;;10.65;8.25;;;-0.20;96.00;;;;;;4197169;28;20048;-66
2024/01/08 08:42:06;;;;;;;10.98;8.88;;;-0.20;96.00;;;;;;4197197;28;20124;-67
2024/01/08 08:44:08;;;;;;;13.73;8.48;;;-0.20;96.30;;;;;;4196933;28;20048;-67
2024/01/08 08:46:11;;;;;;;11.27;8.45;;;-0.30;96.00;;;;;;4196927;28;20114;-66
2024/01/08 08:48:13;;;;;;;9.65;8.55;;;-0.20;96.20;;;;;;4196874;28;20479;-67
2024/01/08 08:50:16;;;;;;;11.90;9.73;;;-0.30;96.30;;;;;;4196576;28;20454;-65
2024/01/08 08:52:19;;;;;;;14.25;9.50;;;-0.30;96.10;;;;;;4196761;28;20394;-68
2024/01/08 08:54:21;;;;;;;25.08;9.50;;;-0.20;96.40;;;;;;4197736;28;20496;-64
2024/01/08 08:56:25;;;;;;;14.88;9.77;;;-0.20;96.90;;;;;;4197317;28;20048;-64
2024/01/08 08:58:28;;;;;;;13.65;10.68;;;-0.40;97.00;;;;;;4198537;28;20064;-65
2024/01/08 09:00:31;;;;;;;16.85;10.80;;;-0.40;97.30;;;;;;4180950;28;20049;-65
2024/01/08 09:02:33;;;;;;;15.70;10.82;;;-0.30;97.40;;;;;;4198738;28;20041;-65
2024/01/08 09:04:35;;;;;;;20.23;11.00;;;-0.20;97.60;;;;;;4199315;28;20143;-64
2024/01/08 09:06:37;;;;;;;12.70;10.02;;;-0.20;97.40;;;;;;4199766;28;20045;-64
2024/01/08 09:08:40;;;;;;;20.88;11.73;;;-0.20;97.20;;;;;;4198755;28;20133;-63
2024/01/08 09:10:42;;;;;;;15.20;10.98;;;-0.20;97.00;;;;;;4197489;28;20044;-65
2024/01/08 09:12:46;;;;;;;15.30;10.63;;;-0.20;97.00;;;;;;4196655;28;20057;-66
2024/01/08 09:14:48;;;;;;;22.52;10.88;;;-0.20;97.00;;;;;;4196502;28;20099;-65
2024/01/08 09:16:50;;;;;;;15.27;11.00;;;-0.20;97.20;;;;;;4196799;28;20044;-65
2024/01/08 09:18:53;;;;;;;15.82;12.38;;;-0.30;97.60;;;;;;4181608;28;20156;-67
2024/01/08 09:20:55;;;;;;;17.10;12.55;;;-0.40;98.20;;;;;;4182151;28;20071;-65
2024/01/08 09:22:57;;;;;;;15.15;12.18;;;-0.40;98.30;;;;;;4200204;28;20052;-67
2024/01/08 09:25:00;;;;;;;15.02;11.75;;;-0.40;98.50;;;;;;4204229;28;20103;-68
2024/01/08 09:27:03;;;;;;;18.38;13.23;;;-0.40;98.50;;;;;;4204897;28;20048;-66
2024/01/08 09:29:07;;;;;;;22.88;13.85;;;-0.40;99.00;;;;;;4204339;28;20119;-67
2024/01/08 09:31:09;;;;;;;18.90;14.52;;;-0.50;99.50;;;;;;4185955;28;20124;-66
2024/01/08 09:33:12;;;;;;;19.80;14.30;;;-0.50;99.90;;;;;;4202887;28;20338;-67
2024/01/08 09:35:14;;;;;;;17.83;14.45;;;-0.60;99.90;;;;;;4202643;28;20045;-64
2024/01/08 09:37:16;;;;;;;20.95;14.77;;;-0.50;99.90;;;;;;4200974;28;20094;-65
2024/01/08 09:39:20;;;;;;;18.23;14.02;;;-0.50;99.90;;;;;;4201221;28;20045;-65
2024/01/08 09:41:22;;;;;;;21.70;15.82;;;-0.50;99.90;;;;;;4199996;28;20068;-63
2024/01/08 09:43:26;;;;;;;20.10;14.40;;;-0.50;99.90;;;;;;4201458;28;20044;-63
2024/01/08 09:45:30;;;;;;;19.38;15.02;;;-0.50;99.90;;;;;;4183387;28;20095;-64
2024/01/08 09:47:33;;;;;;;28.45;16.23;;;-0.50;99.90;;;;;;4200333;28;20475;-64
2024/01/08 09:49:38;;;;;;;20.67;15.70;;;-0.50;99.90;;;;;;4199688;28;20048;-63
2024/01/08 09:51:43;;;;;;;20.98;16.08;;;-0.50;99.90;;;;;;4200356;28;20094;-66
2024/01/08 09:53:46;;;;;;;22.55;15.73;;;-0.50;99.90;;;;;;4199647;28;20048;-67
2024/01/08 09:55:50;;;;;;;23.42;16.73;;;-0.50;99.90;;;;;;4199663;28;20128;-66
2024/01/08 09:57:53;;;;;;;23.45;16.75;;;-0.60;99.90;;;;;;4199523;28;20044;-67
2024/01/08 09:59:55;;;;;;;24.08;17.00;;;-0.60;99.90;;;;;;4200596;28;20041;-67
2024/01/08 10:01:59;;;;;;;27.02;18.85;;;-0.70;99.90;;;;;;4199964;28;20053;-66
2024/01/08 10:04:01;;;;;;;23.77;16.88;;;-0.70;99.90;;;;;;4199750;28;20068;-66
2024/01/08 10:06:06;;;;;;;26.48;18.20;;;-0.70;99.90;;;;;;4201061;28;20127;-67
2024/01/08 10:08:09;;;;;;;28.92;18.20;;;-0.70;99.90;;;;;;4182364;28;20478;-67
2024/01/08 10:10:11;;;;;;;23.95;17.92;;;-0.70;99.90;;;;;;4200007;28;20063;-67
2024/01/08 10:12:15;;;;;;;26.85;18.52;;;-0.70;99.90;;;;;;4200295;28;20051;-68
2024/01/08 10:14:18;;;;;;;24.15;18.63;;;-0.60;99.90;;;;;;4199349;28;20107;-66
2024/01/08 10:16:20;;;;;;;22.42;17.98;;;-0.60;99.90;;;;;;4199668;28;20123;-65
2024/01/08 10:18:24;;;;;;;24.55;16.80;;;-0.60;99.90;;;;;;4199295;28;20055;-66
2024/01/08 10:20:28;;;;;;;25.70;18.80;;;-0.60;99.90;;;;;;4199156;28;20051;-66
2024/01/08 10:22:30;;;;;;;28.48;19.85;;;-0.60;99.90;;;;;;4200138;28;20114;-66
2024/01/08 10:24:35;;;;;;;27.50;19.88;;;-0.60;99.90;;;;;;4199372;28;20127;-67
2024/01/08 10:26:39;;;;;;;27.70;21.33;;;-0.70;99.90;;;;;;4199624;28;20045;-66
2024/01/08 10:28:42;;;;;;;28.65;21.23;;;-0.60;99.90;;;;;;4198389;28;20416;-67
2024/01/08 10:30:44;;;;;;;29.63;21.48;;;-0.60;99.90;;;;;;4198841;28;20456;-67
2024/01/08 10:32:47;;;;;;;29.13;22.75;;;-0.70;99.90;;;;;;4164082;28;20045;-68
2024/01/08 10:34:51;;;;;;;32.25;21.98;;;-0.70;99.90;;;;;;4198996;28;20052;-66
2024/01/08 10:36:54;;;;;;;25.92;19.63;;;-0.70;99.90;;;;;;4198946;28;20049;-68
2024/01/08 10:38:57;;;;;;;31.63;24.13;;;-0.70;99.90;;;;;;4198597;28;20072;-67